Latest Weather Observations for Hamilton Island

IDQ60801

Issued at 7:52 pm EST Sunday 28 February 2021 (issued every 10 minutes, with the page automatically refreshed every 10 minutes)

About weather observations | Map of weather stations | Latest weather observations for QLD | Other Formats
Station Details ID: 033106 Name: HAMILTON ISLAND AIRPORT Lat: -20.37 Lon: 148.95 Height: 58.66 m
Data from the previous 72 hours. | See also: Recent months at Hamilton Island
Date/Time
EST
Temp
°C
App
Temp
°C
Dew
Point
°C
Rel
Hum
%
Delta-T
°C
Wind Press
QNH
hPa
Press
MSL
hPa
Rain since
9am
mm
Dir  Spd
km/h
Gust
km/h
Spd
kts
Gust
kts
28/07:30pm 24.5 20.0 24.5 100 0.0 ESE 56 87 30 47 1005.1 1004.7 14.2
28/07:25pm 24.6 22.1 24.6 100 0.0 ESE 46 87 25 47 1004.8 1004.4 13.8
28/07:23pm 26.0 25.3 26.0 100 0.0 ESE 41 72 22 39 1005.1 1004.7 12.6
28/07:17pm 25.9 25.1 25.9 100 0.0 ESE 41 52 22 28 1005.1 1004.7 12.6
28/07:08pm 24.7 21.5 24.7 100 0.0 SE 50 74 27 40 1005.2 1004.8 12.6
28/07:04pm 24.4 19.7 24.4 100 0.0 ESE 57 76 31 41 1005.1 1004.7 12.6
28/07:00pm 24.2 18.8 24.0 99 0.1 ESE 59 76 32 41 1004.9 1004.5 12.6
28/06:56pm 24.5 19.4 23.8 96 0.5 ESE 57 76 31 41 1004.7 1004.3 12.0
28/06:55pm 25.4 21.3 24.5 95 0.6 ESE 54 76 29 41 1004.8 1004.4 11.4
28/06:43pm 26.1 22.9 25.4 96 0.5 ESE 52 59 28 32 1004.6 1004.2 11.2
28/06:30pm 25.1 20.3 24.9 99 0.1 ESE 59 82 32 44 1004.8 1004.4 11.2
28/06:19pm 25.6 20.9 24.2 92 1.0 ESE 56 78 30 42 1004.4 1004.0 10.6
28/06:18pm 25.7 21.7 24.7 94 0.7 ESE 54 76 29 41 1004.3 1003.9 10.6
28/06:00pm 26.3 23.3 25.6 96 0.5 ESE 52 63 28 34 1004.6 1004.2 10.2
28/05:53pm 26.4 24.2 25.7 96 0.5 SE 48 59 26 32 1004.4 1004.0 10.2
28/05:30pm 26.7 24.7 25.5 93 0.8 SE 46 56 25 30 1004.3 1003.9 9.6
28/05:00pm 26.0 23.2 24.8 93 0.8 SE 48 61 26 33 1004.5 1004.1 9.6
28/04:46pm 25.7 25.2 25.7 100 0.0 SE 39 67 21 36 1004.0 1003.6 9.6
28/04:33pm 25.8 25.7 25.8 100 0.0 SE 37 44 20 24 1004.4 1004.0 9.4
28/04:30pm 26.0 26.1 26.0 100 0.0 ESE 37 44 20 24 1004.4 1004.0 9.4
28/04:23pm 25.7 26.0 25.7 100 0.0 ESE 35 41 19 22 1004.5 1004.1 9.2
28/04:19pm 25.7 26.0 25.7 100 0.0 ESE 35 41 19 22 1004.4 1004.0 9.2
28/04:16pm 25.6 25.8 25.6 100 0.0 ESE 35 41 19 22 1004.5 1004.1 9.2
28/04:00pm 24.9 22.2 24.9 100 0.0 ESE 48 61 26 33 1004.7 1004.3 8.8
28/03:30pm 26.3 25.1 25.8 97 0.4 SE 43 52 23 28 1004.4 1004.0 2.8
28/03:29pm 26.3 25.1 25.8 97 0.4 SE 43 50 23 27 1004.4 1004.0 2.8
28/03:28pm 26.4 25.3 25.9 97 0.4 SE 43 50 23 27 1004.4 1004.0 2.8
28/03:18pm 26.4 24.2 25.7 96 0.5 SE 48 56 26 30 1004.6 1004.2 2.0
28/03:16pm 26.4 24.2 25.7 96 0.5 SE 48 56 26 30 1004.5 1004.1 1.8
28/03:00pm 26.5 24.5 25.5 94 0.7 ESE 46 52 25 28 1004.9 1004.5 1.6
28/02:48pm 26.5 24.9 25.5 94 0.7 SE 44 52 24 28 1004.9 1004.5 1.0
28/02:30pm 26.4 23.7 25.0 92 1.0 SE 48 56 26 30 1004.9 1004.5 0.4
28/02:00pm 27.3 25.1 25.1 88 1.5 SE 46 56 25 30 1005.2 1004.8 0.2
28/01:30pm 27.6 25.6 25.4 88 1.5 SE 46 54 25 29 1005.1 1004.7 0.2
28/01:23pm 27.5 25.8 25.3 88 1.5 ESE 44 54 24 29 1005.3 1004.9 0.2
28/01:19pm 27.5 26.0 25.3 88 1.5 ESE 43 50 23 27 1005.5 1005.1 0.2
28/01:06pm 27.5 26.0 25.3 88 1.5 ESE 43 48 23 26 1005.8 1005.4 0.2
28/01:00pm 27.5 26.5 25.5 89 1.4 SE 41 48 22 26 1005.7 1005.3 0.2
28/12:30pm 27.5 26.0 25.3 88 1.5 ESE 43 50 23 27 1006.1 1005.7 0.2
28/12:00pm 27.6 26.1 25.4 88 1.6 ESE 43 54 23 29 1006.4 1006.0 0.2
28/11:30am 27.6 26.5 25.4 88 1.5 ESE 41 48 22 26 1006.9 1006.5 0.2
28/11:20am 27.7 28.1 27.0 96 0.5 ESE 39 46 21 25 1007.0 1006.6 0.2
28/11:00am 27.5 28.4 27.2 98 0.2 ESE 37 44 20 24 1007.2 1006.8 0.2
28/10:30am 27.3 28.2 27.3 100 0.0 ESE 37 44 20 24 1007.5 1007.1 0.2
28/10:00am 27.0 27.4 27.0 100 0.0 ESE 39 46 21 25 1007.7 1007.3 0.2
28/09:30am 26.8 26.6 26.8 100 0.0 ESE 41 48 22 26 1007.5 1007.1 0.2
28/09:20am 26.6 25.7 26.6 100 0.0 ESE 44 56 24 30 1007.3 1006.9 0.2
28/09:00am 26.5 25.8 26.5 100 0.0 ESE 43 54 23 29 1007.3 1006.9 84.4
28/08:37am 25.8 25.0 25.8 100 0.0 ESE 41 48 22 26 1007.6 1007.2 84.0
28/08:30am 25.6 24.3 25.6 100 0.0 ESE 43 52 23 28 1007.4 1007.0 83.8
28/08:13am 25.9 23.4 25.9 100 0.0 ESE 50 74 27 40 1006.8 1006.4 82.8
28/08:12am 26.0 24.0 26.0 100 0.0 ESE 48 74 26 40 1006.7 1006.3 81.8
28/08:00am 25.7 25.2 25.7 100 0.0 ESE 39 48 21 26 1006.8 1006.4 81.0
28/07:54am 25.5 25.2 25.5 100 0.0 ESE 37 48 20 26 1006.8 1006.4 81.0
28/07:44am 24.6 21.7 24.6 100 0.0 E 48 70 26 38 1006.8 1006.4 81.0
28/07:31am 24.3 21.6 24.3 100 0.0 E 46 76 25 41 1006.4 1006.0 78.4
28/07:30am 24.4 22.1 24.4 100 0.0 E 44 76 24 41 1006.3 1005.9 78.4
28/07:28am 24.5 23.2 24.5 100 0.0 E 39 74 21 40 1006.1 1005.7 77.2
28/07:26am 24.6 24.2 24.6 100 0.0 E 35 57 19 31 1006.5 1006.1 76.4
28/07:17am 24.9 25.0 24.9 100 0.0 E 33 44 18 24 1006.4 1006.0 75.2
28/07:02am 24.5 19.8 24.5 100 0.0 E 57 82 31 44 1006.3 1005.9 69.6
28/07:00am 24.3 18.7 24.3 100 0.0 E 61 82 33 44 1006.2 1005.8 69.2
28/06:52am 24.6 21.5 24.3 98 0.2 ESE 48 78 26 42 1005.6 1005.2 62.4
28/06:50am 25.8 24.6 25.8 100 0.0 ESE 43 61 23 33 1006.0 1005.6 61.6
28/06:30am 26.1 25.5 25.6 97 0.4 SE 39 48 21 26 1005.6 1005.2 57.2
28/06:26am 26.2 25.7 25.7 97 0.4 SE 39 46 21 25 1005.6 1005.2 57.0
28/06:12am 26.2 26.1 25.7 97 0.4 SE 37 50 20 27 1005.6 1005.2 56.4
28/06:00am 25.9 26.9 25.9 100 0.0 SE 32 39 17 21 1005.5 1005.1 56.4
28/05:37am 25.2 23.7 24.7 97 0.3 ESE 41 65 22 35 1005.4 1005.0 51.2
28/05:36am 25.3 23.7 24.6 96 0.5 ESE 41 65 22 35 1005.4 1005.0 51.0
28/05:34am 25.8 24.9 25.1 96 0.5 ESE 39 61 21 33 1005.4 1005.0 49.6
28/05:30am 26.1 25.4 25.4 96 0.5 SE 39 44 21 24 1005.4 1005.0 49.2
28/05:20am 26.2 25.2 25.5 96 0.5 SE 41 48 22 26 1005.2 1004.8 49.0
28/05:17am 26.1 25.3 25.2 95 0.6 SE 39 48 21 26 1005.2 1004.8 48.8
28/05:07am 26.3 25.5 25.3 94 0.7 SE 39 46 21 25 1005.1 1004.7 48.6
28/05:03am 26.2 24.6 25.2 94 0.7 SE 43 52 23 28 1005.1 1004.7 48.6
28/05:00am 26.3 24.8 25.4 95 0.6 SE 43 52 23 28 1005.1 1004.7 48.6
28/04:46am 26.3 26.4 25.4 95 0.6 ESE 35 54 19 29 1005.1 1004.7 48.6
28/04:42am 26.2 26.2 25.3 95 0.6 ESE 35 46 19 25 1005.2 1004.8 48.4
28/04:40am 26.1 26.0 25.1 94 0.7 SE 35 46 19 25 1005.2 1004.8 48.0
28/04:30am 26.7 26.1 24.9 90 1.3 SE 37 44 20 24 1005.1 1004.7 47.2
28/04:25am 26.7 26.3 25.3 92 1.0 SE 37 44 20 24 1005.0 1004.6 47.2
28/04:14am 26.4 25.6 25.2 93 0.8 SE 39 46 21 25 1005.1 1004.7 47.2
28/04:13am 26.4 25.4 25.0 92 1.0 SE 39 46 21 25 1005.1 1004.7 47.2
28/04:00am 26.8 26.2 25.0 90 1.3 SE 37 44 20 24 1005.2 1004.8 47.0
28/03:36am 27.1 25.2 24.7 87 1.7 SE 43 48 23 26 1005.0 1004.6 47.0
28/03:30am 27.0 25.8 24.6 87 1.7 SE 39 48 21 26 1005.1 1004.7 47.0
28/03:10am 27.1 26.8 24.9 88 1.5 ESE 35 41 19 22 1005.3 1004.9 47.0
28/03:00am 27.2 26.4 25.2 89 1.4 ESE 39 46 21 25 1005.3 1004.9 47.0
28/02:58am 27.1 26.0 24.7 87 1.7 ESE 39 46 21 25 1005.3 1004.9 47.0
28/02:30am 27.1 26.7 24.7 87 1.7 ESE 35 41 19 22 1005.6 1005.2 47.0
28/02:21am 27.1 25.9 24.6 86 1.7 ESE 39 44 21 24 1005.8 1005.4 47.0
28/02:00am 27.1 25.6 24.7 87 1.7 SE 41 50 22 27 1006.0 1005.6 47.0
28/01:30am 27.1 26.1 24.9 88 1.5 ESE 39 44 21 24 1006.6 1006.2 47.0
28/01:00am 27.1 26.0 24.7 87 1.7 ESE 39 44 21 24 1006.9 1006.5 47.0
28/12:56am 27.1 26.0 24.7 87 1.7 ESE 39 46 21 25 1007.0 1006.6 47.0
28/12:35am 27.1 27.2 24.9 88 1.5 SE 33 39 18 21 1007.0 1006.6 47.0
28/12:30am 27.1 27.1 24.7 87 1.7 SE 33 39 18 21 1007.1 1006.7 47.0
28/12:00am 27.0 27.1 24.8 88 1.5 SE 33 39 18 21 1007.3 1006.9 47.0
 
Date/Time
EST
Temp
°C
App
Temp
°C
Dew
Point
°C
Rel
Hum
%
Delta-T
°C
Wind Press
QNH
hPa
Press
MSL
hPa
Rain since
9am
mm
Dir  Spd
km/h
Gust
km/h
Spd
kts
Gust
kts
27/11:30pm 27.1 26.3 24.6 86 1.7 ESE 37 43 20 23 1007.7 1007.3 47.0
27/11:00pm 27.1 27.3 24.7 87 1.7 ESE 32 41 17 22 1008.1 1007.7 47.0
27/10:30pm 27.1 27.1 24.7 87 1.7 ESE 33 39 18 21 1008.1 1007.7 47.0
27/10:00pm 26.7 28.3 25.1 91 1.1 SE 26 30 14 16 1008.2 1007.8 47.0
27/09:30pm 26.7 25.8 24.5 88 1.5 ESE 37 44 20 24 1008.1 1007.7 47.0
27/09:00pm 26.3 27.6 25.3 94 0.7 ESE 28 33 15 18 1008.0 1007.6 47.0
27/08:30pm 26.7 27.5 25.1 91 1.1 SE 30 44 16 24 1007.8 1007.4 46.6
27/08:00pm 26.4 27.3 25.2 93 0.8 SE 30 35 16 19 1007.7 1007.3 46.6
27/07:30pm 25.5 29.0 25.5 100 0.0 ESE 17 22 9 12 1007.6 1007.2 46.6
27/07:13pm 24.8 27.3 24.8 100 0.0 SE 20 26 11 14 1007.3 1006.9 46.6
27/07:04pm 24.5 27.4 24.5 100 0.0 SSE 17 24 9 13 1007.3 1006.9 46.6
27/07:00pm 24.3 27.9 24.3 100 0.0 SSE 13 20 7 11 1007.3 1006.9 46.6
27/06:30pm 23.9 26.5 23.9 100 0.0 S 17 28 9 15 1007.1 1006.7 38.2
27/06:27pm 24.0 26.0 24.0 100 0.0 S 20 28 11 15 1007.1 1006.7 36.8
27/06:07pm 23.9 26.5 23.9 100 0.0 SSE 17 22 9 12 1006.9 1006.5 31.0
27/06:00pm 24.0 26.6 24.0 100 0.0 SSE 17 22 9 12 1006.9 1006.5 27.6
27/05:40pm 23.8 24.4 23.5 98 0.2 SSE 26 32 14 17 1006.8 1006.4 22.8
27/05:37pm 23.8 24.3 23.3 97 0.3 SSE 26 32 14 17 1006.7 1006.3 22.0
27/05:30pm 23.9 24.8 23.4 97 0.3 SSE 24 33 13 18 1006.5 1006.1 21.8
27/05:21pm 24.1 25.4 24.1 100 0.0 SSE 24 30 13 16 1006.4 1006.0 21.4
27/05:17pm 23.9 24.8 23.9 100 0.0 SSE 26 33 14 18 1006.3 1005.9 21.4
27/05:00pm 23.6 23.1 23.6 100 0.0 SSE 32 39 17 21 1006.3 1005.9 21.4
27/04:30pm 23.9 22.7 23.9 100 0.0 SE 37 44 20 24 1006.4 1006.0 19.6
27/04:00pm 24.3 23.3 24.3 100 0.0 SE 37 43 20 23 1006.3 1005.9 8.4
27/03:45pm 24.2 21.7 24.0 99 0.1 SE 44 50 24 27 1006.2 1005.8 5.0
27/03:30pm 24.4 22.1 24.1 98 0.2 SE 43 48 23 26 1005.9 1005.5 4.4
27/03:20pm 25.0 23.2 24.3 96 0.5 SE 41 46 22 25 1006.0 1005.6 3.8
27/03:00pm 25.8 24.9 24.4 92 1.0 SE 37 43 20 23 1006.0 1005.6 3.6
27/02:51pm 25.7 23.8 24.1 91 1.1 SE 41 48 22 26 1006.1 1005.7 3.6
27/02:30pm 26.1 24.2 24.1 89 1.4 SSE 41 50 22 27 1006.1 1005.7 3.4
27/02:00pm 25.1 24.5 24.9 99 0.1 SSE 37 48 20 26 1006.5 1006.1 3.4
27/01:30pm 25.4 23.9 24.7 96 0.5 SSE 41 46 22 25 1006.8 1006.4 3.4
27/01:00pm 26.1 24.2 24.7 92 1.0 SSE 43 48 23 26 1007.1 1006.7 3.4
27/12:30pm 26.4 26.6 25.0 92 1.0 SE 33 41 18 22 1007.3 1006.9 3.4
27/12:00pm 26.7 25.9 25.8 95 0.6 ESE 41 48 22 26 1007.6 1007.2 3.4
27/11:51am 26.1 25.0 25.4 96 0.5 ESE 41 48 22 26 1007.6 1007.2 3.4
27/11:32am 26.1 25.4 25.4 96 0.5 ESE 39 52 21 28 1007.8 1007.4 3.4
27/11:30am 26.0 25.5 25.1 95 0.6 ESE 37 48 20 26 1007.9 1007.5 3.4
27/11:04am 27.0 26.3 24.8 88 1.5 ESE 37 44 20 24 1008.1 1007.7 0.2
27/11:00am 27.4 27.0 25.2 88 1.5 ESE 37 44 20 24 1008.1 1007.7 0.2
27/10:52am 27.8 27.4 25.2 86 1.8 ESE 37 43 20 23 1008.0 1007.6 0.2
27/10:31am 27.8 27.2 25.0 85 2.0 ESE 37 44 20 24 1008.2 1007.8 0.2
27/10:30am 27.7 27.1 24.9 85 2.0 ESE 37 44 20 24 1008.3 1007.9 0.2
27/10:20am 27.8 27.4 25.2 86 1.8 ESE 37 44 20 24 1008.4 1008.0 0.2
27/10:18am 27.9 27.1 25.3 86 1.8 ESE 39 44 21 24 1008.4 1008.0 0.2
27/10:00am 27.8 27.5 26.6 93 0.9 ESE 41 46 22 25 1008.3 1007.9 0.2
27/09:38am 27.7 27.2 27.2 97 0.4 ESE 44 50 24 27 1008.1 1007.7 0.2
27/09:35am 27.5 26.9 27.0 97 0.4 ESE 44 50 24 27 1008.1 1007.7 0.2
27/09:30am 27.7 27.3 27.0 96 0.5 ESE 43 50 23 27 1008.1 1007.7 0.2
27/09:06am 26.4 26.0 26.4 100 0.0 ESE 41 46 22 25 1008.0 1007.6 0.0
27/09:00am 26.0 26.1 26.0 100 0.0 ESE 37 48 20 26 1007.9 1007.5 69.6
27/08:35am 25.0 22.0 25.0 100 0.0 E 50 69 27 37 1007.7 1007.3 66.8
27/08:30am 25.0 23.7 25.0 100 0.0 E 41 69 22 37 1007.6 1007.2 64.6
27/08:28am 24.8 23.3 24.8 100 0.0 E 41 69 22 37 1007.4 1007.0 63.4
27/08:26am 25.1 24.1 24.9 99 0.1 E 39 54 21 29 1007.8 1007.4 62.4
27/08:15am 25.2 22.0 24.2 94 0.7 E 48 61 26 33 1007.5 1007.1 57.8
27/08:10am 26.2 23.5 23.3 84 2.0 E 43 61 23 33 1007.2 1006.8 56.4
27/08:00am 27.3 25.7 24.6 85 1.9 ESE 41 46 22 25 1007.3 1006.9 56.4
27/07:30am 27.2 26.1 24.7 86 1.7 ESE 39 44 21 24 1007.1 1006.7 56.4
27/07:07am 27.2 25.7 24.7 86 1.7 ESE 41 46 22 25 1006.8 1006.4 56.4
27/07:00am 27.1 25.5 24.6 86 1.7 ESE 41 46 22 25 1006.8 1006.4 56.4
27/06:30am 27.0 25.4 24.6 87 1.7 ESE 41 46 22 25 1006.5 1006.1 56.4
27/06:00am 26.7 25.4 24.5 88 1.5 ESE 39 46 21 25 1006.3 1005.9 56.4
27/05:36am 26.9 25.5 24.9 89 1.4 ESE 41 46 22 25 1006.1 1005.7 56.4
27/05:34am 26.8 25.3 24.8 89 1.4 ESE 41 46 22 25 1006.1 1005.7 56.4
27/05:30am 26.8 25.2 24.6 88 1.5 ESE 41 46 22 25 1006.1 1005.7 56.4
27/05:00am 26.6 26.0 24.4 88 1.5 ESE 35 41 19 22 1005.8 1005.4 56.4
27/04:30am 26.6 27.1 24.6 89 1.4 ESE 30 37 16 20 1005.6 1005.2 56.4
27/04:00am 26.4 27.0 24.8 91 1.1 ESE 30 33 16 18 1005.4 1005.0 56.4
27/03:30am 26.0 26.5 24.6 92 1.0 SE 30 35 16 19 1005.7 1005.3 56.4
27/03:00am 25.7 26.5 24.5 93 0.8 SE 28 33 15 18 1005.9 1005.5 56.4
27/02:30am 25.6 26.2 24.2 92 1.0 SE 28 35 15 19 1006.2 1005.8 56.4
27/02:00am 25.4 26.4 24.2 93 0.8 SE 26 33 14 18 1006.4 1006.0 56.4
27/01:30am 25.1 25.7 24.1 94 0.7 SE 28 33 15 18 1006.7 1006.3 56.4
27/01:00am 24.7 24.6 23.5 93 0.8 SE 30 35 16 19 1007.0 1006.6 56.4
27/12:30am 24.8 24.1 24.1 96 0.5 SE 35 43 19 23 1007.3 1006.9 56.4
27/12:00am 24.8 23.2 23.9 95 0.6 SE 39 44 21 24 1007.7 1007.3 56.4
 
Date/Time
EST
Temp
°C
App
Temp
°C
Dew
Point
°C
Rel
Hum
%
Delta-T
°C
Wind Press
QNH
hPa
Press
MSL
hPa
Rain since
9am
mm
Dir  Spd
km/h
Gust
km/h
Spd
kts
Gust
kts
26/11:30pm 24.6 22.7 24.1 97 0.3 SE 41 50 22 27 1008.3 1007.9 56.4
26/11:00pm 24.5 23.3 24.0 97 0.3 SE 37 44 20 24 1008.7 1008.3 56.4
26/10:30pm 24.2 23.4 24.0 99 0.1 SE 35 46 19 25 1009.1 1008.7 56.4
26/10:11pm 24.2 23.9 24.2 100 0.0 SE 33 39 18 21 1009.3 1008.9 56.4
26/10:00pm 24.2 23.9 24.2 100 0.0 SE 33 39 18 21 1009.3 1008.9 56.2
26/09:38pm 23.6 22.6 23.6 100 0.0 SE 35 41 19 22 1009.3 1008.9 55.0
26/09:36pm 23.6 22.6 23.6 100 0.0 SE 35 41 19 22 1009.3 1008.9 55.0
26/09:30pm 23.7 22.7 23.7 100 0.0 SE 35 39 19 21 1009.2 1008.8 54.6
26/09:00pm 23.8 22.1 23.8 100 0.0 SE 39 46 21 25 1009.3 1008.9 52.4
26/08:48pm 23.7 22.0 23.7 100 0.0 SE 39 43 21 23 1009.1 1008.7 51.4
26/08:30pm 24.2 22.8 24.2 100 0.0 ESE 39 43 21 23 1009.0 1008.6 50.4
26/08:22pm 23.9 23.0 23.9 100 0.0 ESE 35 43 19 23 1009.0 1008.6 50.0
26/08:00pm 24.2 23.1 24.2 100 0.0 SE 37 44 20 24 1008.7 1008.3 49.0
26/07:30pm 23.8 25.0 23.8 100 0.0 SE 24 30 13 16 1008.5 1008.1 48.6
26/07:00pm 23.9 25.5 23.9 100 0.0 ESE 22 28 12 15 1008.3 1007.9 47.6
26/06:47pm 23.4 25.1 23.4 100 0.0 ESE 20 26 11 14 1008.2 1007.8 47.4
26/06:30pm 23.6 25.6 23.6 100 0.0 SE 19 24 10 13 1008.0 1007.6 46.8
26/06:00pm 23.4 23.6 23.4 100 0.0 SE 28 32 15 17 1007.7 1007.3 46.0
26/05:54pm 23.3 23.8 23.3 100 0.0 SSE 26 30 14 16 1007.7 1007.3 46.0
26/05:52pm 23.3 23.8 23.3 100 0.0 SSE 26 30 14 16 1007.6 1007.2 46.0
26/05:30pm 23.1 24.6 23.1 100 0.0 SSE 20 28 11 15 1007.4 1007.0 45.4
26/05:24pm 23.3 25.1 23.3 100 0.0 S 19 26 10 14 1007.3 1006.9 45.0
26/05:04pm 23.8 27.1 23.8 100 0.0 SSE 13 15 7 8 1007.1 1006.7 44.2
26/05:00pm 23.8 27.1 23.8 100 0.0 SSE 13 15 7 8 1007.1 1006.7 44.2
26/04:36pm 23.7 26.9 23.7 100 0.0 ESE 13 17 7 9 1006.8 1006.4 43.0
26/04:30pm 23.6 26.7 23.6 100 0.0 ESE 13 17 7 9 1006.8 1006.4 42.8
26/04:00pm 23.7 26.5 23.7 100 0.0 ESE 15 19 8 10 1006.9 1006.5 39.2
26/03:51pm 23.5 25.3 23.5 100 0.0 E 20 30 11 16 1007.0 1006.6 38.2
26/03:31pm 23.9 25.5 23.9 100 0.0 SE 22 26 12 14 1006.9 1006.5 25.8
26/03:30pm 23.9 25.9 23.9 100 0.0 SE 20 26 11 14 1006.8 1006.4 25.2
26/03:10pm 24.0 25.3 24.0 100 0.0 SE 24 28 13 15 1006.6 1006.2 23.0
26/03:06pm 23.8 24.6 23.8 100 0.0 SE 26 32 14 17 1006.5 1006.1 22.8
26/03:00pm 23.7 24.1 23.7 100 0.0 SE 28 33 15 18 1006.6 1006.2 22.2
26/02:30pm 24.0 24.5 24.0 100 0.0 ESE 28 32 15 17 1006.9 1006.5 19.8
26/02:00pm 23.7 23.7 23.7 100 0.0 ESE 30 43 16 23 1006.9 1006.5 17.0
26/01:30pm 23.7 23.1 23.7 100 0.0 ESE 33 46 18 25 1007.2 1006.8 14.0
26/01:25pm 23.7 21.2 23.7 100 0.0 E 43 54 23 29 1007.1 1006.7 12.4
26/01:00pm 24.9 21.7 24.2 96 0.5 E 48 65 26 35 1006.7 1006.3 4.0
26/12:56pm 25.1 23.8 24.4 96 0.5 E 39 65 21 35 1006.5 1006.1 3.8
26/12:54pm 25.3 25.2 24.6 96 0.5 E 33 54 18 29 1006.7 1006.3 3.8
26/12:34pm 26.4 25.3 24.2 88 1.5 ESE 37 44 20 24 1007.1 1006.7 2.4
26/12:30pm 26.6 25.6 24.3 87 1.6 ESE 37 44 20 24 1007.1 1006.7 2.2
26/12:00pm 26.7 25.8 24.4 87 1.6 ESE 37 46 20 25 1007.3 1006.9 2.0
26/11:39am 27.1 26.9 24.4 85 1.9 ESE 33 43 18 23 1007.4 1007.0 1.4
26/11:30am 26.1 30.5 24.5 91 1.1 ENE 9 32 5 17 1007.7 1007.3 1.4
26/11:15am 26.2 28.8 24.6 91 1.1 E 19 30 10 16 1007.8 1007.4 1.2
26/11:10am 26.5 30.5 25.1 92 1.0 E 13 19 7 10 1007.8 1007.4 1.0
26/11:00am 26.5 30.0 24.9 91 1.1 E 15 20 8 11 1007.8 1007.4 1.0
26/10:53am 26.1 28.9 24.9 93 0.8 E 19 26 10 14 1007.9 1007.5 1.0
26/10:45am 26.0 27.5 24.4 91 1.1 E 24 30 13 16 1007.9 1007.5 0.6
26/10:33am 25.6 24.9 24.2 92 1.0 E 35 48 19 26 1008.0 1007.6 0.6
26/10:30am 25.7 24.2 24.1 91 1.1 E 39 52 21 28 1008.0 1007.6 0.6
26/10:19am 25.6 23.4 24.2 92 1.0 E 43 50 23 27 1008.0 1007.6 0.4
26/10:18am 25.8 23.7 24.4 92 1.0 E 43 50 23 27 1008.0 1007.6 0.4
26/10:00am 27.2 25.3 24.1 83 2.1 ESE 41 50 22 27 1007.9 1007.5 0.0
26/09:30am 27.6 27.2 24.0 81 2.5 ESE 33 41 18 22 1007.9 1007.5 0.0
26/09:00am 27.8 27.6 24.0 80 2.6 ESE 32 35 17 19 1007.9 1007.5 0.6
26/08:30am 28.1 27.0 23.5 76 3.2 ESE 35 44 19 24 1007.7 1007.3 0.6
26/08:00am 27.5 26.9 24.4 83 2.2 ESE 35 41 19 22 1007.5 1007.1 0.6
26/07:30am 27.2 25.9 24.5 85 1.9 ESE 39 46 21 25 1007.1 1006.7 0.6
26/07:00am 27.0 25.9 24.1 84 2.0 ESE 37 44 20 24 1006.9 1006.5 0.4
26/06:30am 26.8 26.1 24.1 85 1.9 ESE 35 44 19 24 1006.6 1006.2 0.4
26/06:00am 26.5 26.4 24.3 88 1.5 ESE 32 35 17 19 1006.3 1005.9 0.4
26/05:30am 26.7 26.4 23.8 84 2.0 ESE 32 35 17 19 1006.0 1005.6 0.2
26/05:00am 26.8 25.9 23.9 84 2.0 ESE 35 41 19 22 1005.6 1005.2 0.0
26/04:30am 26.8 25.9 23.9 84 2.0 ESE 35 41 19 22 1005.5 1005.1 0.0
26/04:00am 27.0 26.0 24.3 85 1.9 ESE 37 43 20 23 1005.2 1004.8 0.0
26/03:30am 26.9 25.8 23.4 81 2.4 ESE 35 43 19 23 1005.4 1005.0 0.0
26/03:00am 27.3 25.3 23.3 79 2.7 ESE 39 43 21 23 1005.8 1005.4 0.0
26/02:30am 27.3 25.6 23.1 78 2.9 ESE 37 41 20 22 1006.2 1005.8 0.0
26/02:00am 27.4 26.3 23.4 79 2.7 E 35 41 19 22 1006.7 1006.3 0.0
26/01:30am 27.5 27.0 23.5 79 2.7 E 32 41 17 22 1007.1 1006.7 0.0
26/01:00am 27.4 26.5 23.8 81 2.5 ESE 35 41 19 22 1007.6 1007.2 0.0
26/12:30am 27.5 27.0 23.9 81 2.5 ESE 33 41 18 22 1007.8 1007.4 0.0
26/12:00am 27.6 26.3 23.2 77 3.0 E 35 41 19 22 1008.1 1007.7 0.0
 
Date/Time
EST
Temp
°C
App
Temp
°C
Dew
Point
°C
Rel
Hum
%
Delta-T
°C
Wind Press
QNH
hPa
Press
MSL
hPa
Rain since
9am
mm
Dir  Spd
km/h
Gust
km/h
Spd
kts
Gust
kts
25/11:30pm 27.6 26.7 23.8 80 2.6 E 35 41 19 22 1008.5 1008.1 0.0
25/11:00pm 27.6 26.9 23.6 79 2.8 ESE 33 39 18 21 1008.5 1008.1 0.0
25/10:30pm 27.8 26.8 23.6 78 2.9 E 35 41 19 22 1008.7 1008.3 0.0
25/10:00pm 27.8 27.3 23.8 79 2.8 E 33 41 18 22 1008.8 1008.4 0.0
25/09:30pm 27.8 27.0 24.0 80 2.6 ESE 35 39 19 21 1008.7 1008.3 0.0
25/09:00pm 27.7 27.1 23.7 79 2.8 ESE 33 39 18 21 1008.6 1008.2 0.0
25/08:30pm 27.7 27.4 23.9 80 2.6 ESE 32 37 17 20 1008.3 1007.9 0.0
25/08:00pm 27.7 26.1 23.3 77 3.0 ESE 37 44 20 24 1007.8 1007.4 0.0

Other formats

Comma delimited format used in spreadsheet applications
http://www.bom.gov.au/fwo/IDQ60801/IDQ60801.94368.axf

JavaScript Object Notation format (JSON) in row-major order
http://www.bom.gov.au/fwo/IDQ60801/IDQ60801.94368.json

Data quality

Most of these data are generated automatically and are frequently updated. Quality checks on data are not normally performed. It is possible for incorrect values to appear. Refer to information at About Latest Weather Observations and please check the disclaimer before using these data.